Terminal Aerodrome Forecast
Issued by NWS

Home | Current Version | Previous Version | Text Only | Print | Product List | Glossary On
Versions: 1 2 3 4 5 6 7 8 9 10 11 12 13 14 15 16 17 18 19 20 21 22 23 24 25 26 27 28 29 30
624
FTAK31 PAFC 210202 AAA
TAFADQ
TAF AMD
PADQ 210202Z 2102/2124 31011KT 3SM -SN OVC025
      TEMPO 2102/2106 1 1/2SM -SN
     FM210600 34012G20KT 3SM -SN OVC025
     FM211200 29015G23KT P6SM VCSH SCT020 OVC035
     FM211800 27015G25KT P6SM SCT025 BKN040=

USA.gov is the U.S. government's official web portal to all federal, state and local government web resources and services.